sensor_id;sensor_type;location;lat;lon;timestamp;pressure;altitude;pressure_sealevel;temperature;humidity
7433;BME280;32233;49.500;7.764;2023-07-22T00:00:38;98395.38;;;15.38;88.63
7433;BME280;32233;49.500;7.764;2023-07-22T00:03:05;98392.97;;;15.36;87.71
7433;BME280;32233;49.500;7.764;2023-07-22T00:05:31;98393.19;;;15.11;89.37
7433;BME280;32233;49.500;7.764;2023-07-22T00:07:58;98392.84;;;14.96;90.36
7433;BME280;32233;49.500;7.764;2023-07-22T00:10:24;98393.63;;;14.84;91.14
7433;BME280;32233;49.500;7.764;2023-07-22T00:12:51;98394.22;;;14.75;92.22
7433;BME280;32233;49.500;7.764;2023-07-22T00:15:17;98401.03;;;14.71;92.52
7433;BME280;32233;49.500;7.764;2023-07-22T00:17:44;98389.78;;;14.69;91.89
7433;BME280;32233;49.500;7.764;2023-07-22T00:20:11;98395.25;;;14.85;90.85
7433;BME280;32233;49.500;7.764;2023-07-22T00:22:38;98389.25;;;15.02;90.19
7433;BME280;32233;49.500;7.764;2023-07-22T00:25:07;98394.47;;;14.97;90.13
7433;BME280;32233;49.500;7.764;2023-07-22T00:27:41;98403.00;;;14.75;90.76
7433;BME280;32233;49.500;7.764;2023-07-22T00:30:08;98396.41;;;14.66;90.56
7433;BME280;32233;49.500;7.764;2023-07-22T00:32:35;98400.19;;;14.58;90.21
7433;BME280;32233;49.500;7.764;2023-07-22T00:35:06;98402.94;;;14.52;92.06
7433;BME280;32233;49.500;7.764;2023-07-22T00:37:33;98391.91;;;14.48;91.38
7433;BME280;32233;49.500;7.764;2023-07-22T00:40:01;98391.22;;;14.41;91.61
7433;BME280;32233;49.500;7.764;2023-07-22T00:42:28;98395.72;;;14.41;92.42
7433;BME280;32233;49.500;7.764;2023-07-22T00:44:54;98391.56;;;14.45;93.08
7433;BME280;32233;49.500;7.764;2023-07-22T00:47:21;98396.44;;;14.48;93.28
7433;BME280;32233;49.500;7.764;2023-07-22T00:49:49;98397.25;;;14.48;92.45
7433;BME280;32233;49.500;7.764;2023-07-22T00:52:17;98389.66;;;14.52;92.56
7433;BME280;32233;49.500;7.764;2023-07-22T00:54:44;98389.88;;;14.50;92.97
7433;BME280;32233;49.500;7.764;2023-07-22T00:57:12;98399.47;;;14.51;93.75
7433;BME280;32233;49.500;7.764;2023-07-22T00:59:39;98391.75;;;14.50;93.51
7433;BME280;32233;49.500;7.764;2023-07-22T01:02:07;98397.63;;;14.52;93.12
7433;BME280;32233;49.500;7.764;2023-07-22T01:04:34;98400.06;;;14.53;93.59
7433;BME280;32233;49.500;7.764;2023-07-22T01:07:03;98394.91;;;14.70;93.60
7433;BME280;32233;49.500;7.764;2023-07-22T01:09:37;98396.16;;;14.68;94.39
7433;BME280;32233;49.500;7.764;2023-07-22T01:12:04;98404.72;;;14.81;93.27
7433;BME280;32233;49.500;7.764;2023-07-22T01:14:39;98385.88;;;14.71;93.13
7433;BME280;32233;49.500;7.764;2023-07-22T01:17:09;98399.75;;;14.61;92.92
7433;BME280;32233;49.500;7.764;2023-07-22T01:19:36;98395.22;;;14.50;93.47
7433;BME280;32233;49.500;7.764;2023-07-22T01:22:04;98391.56;;;14.45;94.18
7433;BME280;32233;49.500;7.764;2023-07-22T01:24:34;98406.06;;;14.49;95.88
7433;BME280;32233;49.500;7.764;2023-07-22T01:27:01;98400.38;;;14.45;96.29
7433;BME280;32233;49.500;7.764;2023-07-22T01:29:29;98394.53;;;14.36;96.54
7433;BME280;32233;49.500;7.764;2023-07-22T01:31:56;98396.88;;;14.33;97.68
7433;BME280;32233;49.500;7.764;2023-07-22T01:34:23;98393.84;;;14.29;98.11
7433;BME280;32233;49.500;7.764;2023-07-22T01:36:51;98401.09;;;14.22;100.00
7433;BME280;32233;49.500;7.764;2023-07-22T01:39:18;98392.25;;;14.10;100.00
7433;BME280;32233;49.500;7.764;2023-07-22T01:41:45;98388.50;;;13.99;100.00
7433;BME280;32233;49.500;7.764;2023-07-22T01:44:12;98393.94;;;13.93;100.00
7433;BME280;32233;49.500;7.764;2023-07-22T01:46:38;98386.47;;;14.01;100.00
7433;BME280;32233;49.500;7.764;2023-07-22T01:49:07;98390.00;;;13.95;100.00
7433;BME280;32233;49.500;7.764;2023-07-22T01:51:37;98386.63;;;13.88;100.00
7433;BME280;32233;49.500;7.764;2023-07-22T01:54:06;98384.56;;;13.90;100.00
7433;BME280;32233;49.500;7.764;2023-07-22T01:56:35;98387.75;;;13.80;100.00
7433;BME280;32233;49.500;7.764;2023-07-22T01:59:02;98377.31;;;13.79;100.00
7433;BME280;32233;49.500;7.764;2023-07-22T02:01:29;98379.41;;;13.77;100.00
7433;BME280;32233;49.500;7.764;2023-07-22T02:03:56;98385.66;;;13.82;100.00
7433;BME280;32233;49.500;7.764;2023-07-22T02:06:23;98375.03;;;13.82;100.00
7433;BME280;32233;49.500;7.764;2023-07-22T02:08:50;98380.59;;;13.81;100.00
7433;BME280;32233;49.500;7.764;2023-07-22T02:11:17;98379.09;;;13.85;100.00
7433;BME280;32233;49.500;7.764;2023-07-22T02:13:44;98381.41;;;13.81;100.00
7433;BME280;32233;49.500;7.764;2023-07-22T02:16:10;98371.81;;;13.80;100.00
7433;BME280;32233;49.500;7.764;2023-07-22T02:18:38;98376.31;;;13.80;100.00
7433;BME280;32233;49.500;7.764;2023-07-22T02:21:05;98379.97;;;13.97;100.00
7433;BME280;32233;49.500;7.764;2023-07-22T02:23:32;98375.78;;;13.90;100.00
7433;BME280;32233;49.500;7.764;2023-07-22T02:25:58;98379.16;;;13.97;100.00
7433;BME280;32233;49.500;7.764;2023-07-22T02:28:25;98377.38;;;14.09;100.00
7433;BME280;32233;49.500;7.764;2023-07-22T02:30:52;98377.75;;;13.94;100.00
7433;BME280;32233;49.500;7.764;2023-07-22T02:33:20;98378.69;;;14.00;100.00
7433;BME280;32233;49.500;7.764;2023-07-22T02:35:47;98384.25;;;13.98;100.00
7433;BME280;32233;49.500;7.764;2023-07-22T02:38:14;98381.66;;;13.92;100.00
7433;BME280;32233;49.500;7.764;2023-07-22T02:40:41;98382.88;;;14.07;100.00
7433;BME280;32233;49.500;7.764;2023-07-22T02:43:09;98379.00;;;13.92;100.00
7433;BME280;32233;49.500;7.764;2023-07-22T02:45:36;98377.03;;;13.87;100.00
7433;BME280;32233;49.500;7.764;2023-07-22T02:48:03;98380.94;;;13.84;100.00
7433;BME280;32233;49.500;7.764;2023-07-22T02:50:30;98381.97;;;13.83;100.00
7433;BME280;32233;49.500;7.764;2023-07-22T02:52:57;98374.16;;;13.88;100.00
7433;BME280;32233;49.500;7.764;2023-07-22T02:55:24;98378.66;;;13.88;100.00
7433;BME280;32233;49.500;7.764;2023-07-22T02:57:51;98376.22;;;13.86;100.00
7433;BME280;32233;49.500;7.764;2023-07-22T03:00:19;98367.66;;;13.84;100.00
7433;BME280;32233;49.500;7.764;2023-07-22T03:02:53;98365.88;;;13.78;100.00
7433;BME280;32233;49.500;7.764;2023-07-22T03:05:20;98369.00;;;13.75;100.00
7433;BME280;32233;49.500;7.764;2023-07-22T03:07:47;98375.53;;;13.91;100.00
7433;BME280;32233;49.500;7.764;2023-07-22T03:10:14;98370.53;;;13.83;100.00
7433;BME280;32233;49.500;7.764;2023-07-22T03:12:40;98375.03;;;13.82;100.00
7433;BME280;32233;49.500;7.764;2023-07-22T03:15:07;98375.84;;;13.83;100.00
7433;BME280;32233;49.500;7.764;2023-07-22T03:17:36;98375.34;;;13.74;100.00
7433;BME280;32233;49.500;7.764;2023-07-22T03:20:04;98370.13;;;13.68;100.00
7433;BME280;32233;49.500;7.764;2023-07-22T03:22:35;98364.66;;;13.62;100.00
7433;BME280;32233;49.500;7.764;2023-07-22T03:25:02;98372.41;;;13.64;100.00
7433;BME280;32233;49.500;7.764;2023-07-22T03:27:28;98379.56;;;13.63;100.00
7433;BME280;32233;49.500;7.764;2023-07-22T03:29:55;98374.03;;;13.65;100.00
7433;BME280;32233;49.500;7.764;2023-07-22T03:32:21;98371.81;;;13.62;100.00
7433;BME280;32233;49.500;7.764;2023-07-22T03:34:48;98384.28;;;13.61;100.00
7433;BME280;32233;49.500;7.764;2023-07-22T03:37:14;98369.81;;;13.57;100.00
7433;BME280;32233;49.500;7.764;2023-07-22T03:39:41;98376.63;;;13.53;100.00
7433;BME280;32233;49.500;7.764;2023-07-22T03:42:08;98384.22;;;13.50;100.00
7433;BME280;32233;49.500;7.764;2023-07-22T03:44:34;98377.50;;;13.47;100.00
7433;BME280;32233;49.500;7.764;2023-07-22T03:47:01;98376.38;;;13.55;100.00
7433;BME280;32233;49.500;7.764;2023-07-22T03:49:27;98378.22;;;13.54;100.00
7433;BME280;32233;49.500;7.764;2023-07-22T03:51:54;98378.69;;;13.51;100.00
7433;BME280;32233;49.500;7.764;2023-07-22T03:54:20;98377.66;;;13.52;100.00
7433;BME280;32233;49.500;7.764;2023-07-22T03:56:47;98373.59;;;13.50;100.00
7433;BME280;32233;49.500;7.764;2023-07-22T03:59:13;98376.25;;;13.50;100.00
7433;BME280;32233;49.500;7.764;2023-07-22T04:01:40;98384.72;;;13.58;100.00
7433;BME280;32233;49.500;7.764;2023-07-22T04:04:07;98376.31;;;13.61;100.00
7433;BME280;32233;49.500;7.764;2023-07-22T04:06:33;98387.31;;;13.65;100.00
7433;BME280;32233;49.500;7.764;2023-07-22T04:09:00;98383.81;;;13.83;100.00
7433;BME280;32233;49.500;7.764;2023-07-22T04:11:27;98382.56;;;13.85;100.00
7433;BME280;32233;49.500;7.764;2023-07-22T04:13:53;98384.47;;;13.97;100.00
7433;BME280;32233;49.500;7.764;2023-07-22T04:16:20;98376.03;;;14.00;100.00
7433;BME280;32233;49.500;7.764;2023-07-22T04:18:46;98381.44;;;13.93;100.00
7433;BME280;32233;49.500;7.764;2023-07-22T04:21:13;98380.78;;;13.79;100.00
7433;BME280;32233;49.500;7.764;2023-07-22T04:23:39;98380.09;;;13.72;100.00
7433;BME280;32233;49.500;7.764;2023-07-22T04:26:06;98387.81;;;13.74;100.00
7433;BME280;32233;49.500;7.764;2023-07-22T04:28:34;98383.31;;;13.74;100.00
7433;BME280;32233;49.500;7.764;2023-07-22T04:31:01;98385.75;;;13.76;100.00
7433;BME280;32233;49.500;7.764;2023-07-22T04:33:28;98382.13;;;13.70;100.00
7433;BME280;32233;49.500;7.764;2023-07-22T04:35:57;98384.59;;;13.72;100.00
7433;BME280;32233;49.500;7.764;2023-07-22T04:38:24;98387.25;;;13.72;100.00
7433;BME280;32233;49.500;7.764;2023-07-22T04:40:51;98382.13;;;13.70;100.00
7433;BME280;32233;49.500;7.764;2023-07-22T04:43:17;98378.22;;;13.73;100.00
7433;BME280;32233;49.500;7.764;2023-07-22T04:45:48;98378.00;;;13.74;100.00
7433;BME280;32233;49.500;7.764;2023-07-22T04:48:19;98383.91;;;13.76;100.00
7433;BME280;32233;49.500;7.764;2023-07-22T04:50:46;98388.38;;;13.94;100.00
7433;BME280;32233;49.500;7.764;2023-07-22T04:53:13;98390.47;;;13.92;100.00
7433;BME280;32233;49.500;7.764;2023-07-22T04:55:40;98394.44;;;14.01;100.00
7433;BME280;32233;49.500;7.764;2023-07-22T04:58:07;98392.66;;;13.95;100.00
7433;BME280;32233;49.500;7.764;2023-07-22T05:00:35;98397.53;;;13.98;100.00
7433;BME280;32233;49.500;7.764;2023-07-22T05:03:04;98395.59;;;14.05;100.00
7433;BME280;32233;49.500;7.764;2023-07-22T05:05:31;98398.69;;;14.02;100.00
7433;BME280;32233;49.500;7.764;2023-07-22T05:07:58;98397.97;;;13.95;100.00
7433;BME280;32233;49.500;7.764;2023-07-22T05:10:25;98403.66;;;13.99;100.00
7433;BME280;32233;49.500;7.764;2023-07-22T05:12:51;98401.72;;;14.06;100.00
7433;BME280;32233;49.500;7.764;2023-07-22T05:15:18;98396.78;;;14.09;100.00
7433;BME280;32233;49.500;7.764;2023-07-22T05:17:44;98407.97;;;14.11;100.00
7433;BME280;32233;49.500;7.764;2023-07-22T05:20:11;98407.91;;;14.18;100.00
7433;BME280;32233;49.500;7.764;2023-07-22T05:22:39;98404.31;;;14.24;100.00
7433;BME280;32233;49.500;7.764;2023-07-22T05:25:07;98405.72;;;14.27;100.00
7433;BME280;32233;49.500;7.764;2023-07-22T05:27:34;98397.19;;;14.36;100.00
7433;BME280;32233;49.500;7.764;2023-07-22T05:30:01;98399.66;;;14.38;100.00
7433;BME280;32233;49.500;7.764;2023-07-22T05:32:30;98404.84;;;14.33;100.00
7433;BME280;32233;49.500;7.764;2023-07-22T05:34:59;98403.91;;;14.57;100.00
7433;BME280;32233;49.500;7.764;2023-07-22T05:37:27;98404.22;;;14.61;100.00
7433;BME280;32233;49.500;7.764;2023-07-22T05:39:54;98403.44;;;14.72;100.00
7433;BME280;32233;49.500;7.764;2023-07-22T05:42:21;98404.41;;;14.78;100.00
7433;BME280;32233;49.500;7.764;2023-07-22T05:44:48;98410.53;;;14.78;100.00
7433;BME280;32233;49.500;7.764;2023-07-22T05:47:14;98405.53;;;14.70;100.00
7433;BME280;32233;49.500;7.764;2023-07-22T05:49:44;98410.63;;;14.72;100.00
7433;BME280;32233;49.500;7.764;2023-07-22T05:52:10;98406.56;;;14.69;100.00
7433;BME280;32233;49.500;7.764;2023-07-22T05:54:37;98415.59;;;14.68;100.00
7433;BME280;32233;49.500;7.764;2023-07-22T05:57:04;98417.91;;;14.76;100.00
7433;BME280;32233;49.500;7.764;2023-07-22T05:59:31;98420.25;;;14.96;100.00
7433;BME280;32233;49.500;7.764;2023-07-22T06:01:58;98409.03;;;15.18;100.00
7433;BME280;32233;49.500;7.764;2023-07-22T06:04:24;98413.81;;;15.39;100.00
7433;BME280;32233;49.500;7.764;2023-07-22T06:06:51;98415.41;;;15.40;100.00
7433;BME280;32233;49.500;7.764;2023-07-22T06:09:18;98415.75;;;15.20;100.00
7433;BME280;32233;49.500;7.764;2023-07-22T06:11:44;98416.69;;;15.38;100.00
7433;BME280;32233;49.500;7.764;2023-07-22T06:14:11;98411.78;;;15.58;98.83
7433;BME280;32233;49.500;7.764;2023-07-22T06:16:38;98414.72;;;15.33;99.75
7433;BME280;32233;49.500;7.764;2023-07-22T06:19:05;98409.50;;;15.26;100.00
7433;BME280;32233;49.500;7.764;2023-07-22T06:21:31;98416.22;;;15.52;100.00
7433;BME280;32233;49.500;7.764;2023-07-22T06:23:58;98419.97;;;15.92;98.43
7433;BME280;32233;49.500;7.764;2023-07-22T06:26:24;98426.56;;;16.01;97.35
7433;BME280;32233;49.500;7.764;2023-07-22T06:28:52;98420.81;;;16.21;95.82
7433;BME280;32233;49.500;7.764;2023-07-22T06:31:18;98419.47;;;17.92;86.41
7433;BME280;32233;49.500;7.764;2023-07-22T06:33:45;98414.44;;;17.73;81.00
7433;BME280;32233;49.500;7.764;2023-07-22T06:36:11;98425.00;;;17.46;82.88
7433;BME280;32233;49.500;7.764;2023-07-22T06:38:38;98415.75;;;17.93;78.70
7433;BME280;32233;49.500;7.764;2023-07-22T06:41:04;98421.56;;;17.29;81.24
7433;BME280;32233;49.500;7.764;2023-07-22T06:43:31;98430.56;;;17.06;83.61
7433;BME280;32233;49.500;7.764;2023-07-22T06:45:58;98428.41;;;17.03;80.99
7433;BME280;32233;49.500;7.764;2023-07-22T06:48:24;98424.16;;;17.41;81.85
7433;BME280;32233;49.500;7.764;2023-07-22T06:50:51;98422.38;;;18.34;73.50
7433;BME280;32233;49.500;7.764;2023-07-22T06:53:17;98423.84;;;17.98;77.47
7433;BME280;32233;49.500;7.764;2023-07-22T06:55:51;98420.84;;;17.94;74.03
7433;BME280;32233;49.500;7.764;2023-07-22T06:58:19;98425.00;;;18.83;72.21
7433;BME280;32233;49.500;7.764;2023-07-22T07:00:46;98427.69;;;18.83;71.92
7433;BME280;32233;49.500;7.764;2023-07-22T07:03:12;98423.72;;;19.28;69.17
7433;BME280;32233;49.500;7.764;2023-07-22T07:05:39;98416.50;;;19.34;67.67
7433;BME280;32233;49.500;7.764;2023-07-22T07:08:09;98415.25;;;19.99;65.71
7433;BME280;32233;49.500;7.764;2023-07-22T07:10:38;98408.28;;;21.82;58.64
7433;BME280;32233;49.500;7.764;2023-07-22T07:13:06;98404.13;;;21.35;59.25
7433;BME280;32233;49.500;7.764;2023-07-22T07:15:32;98404.44;;;20.67;60.97
7433;BME280;32233;49.500;7.764;2023-07-22T07:17:59;98418.00;;;19.57;66.06
7433;BME280;32233;49.500;7.764;2023-07-22T07:20:25;98415.69;;;18.91;69.36
7433;BME280;32233;49.500;7.764;2023-07-22T07:22:52;98417.25;;;18.87;69.10
7433;BME280;32233;49.500;7.764;2023-07-22T07:25:18;98419.31;;;18.74;70.48
7433;BME280;32233;49.500;7.764;2023-07-22T07:27:45;98416.78;;;18.68;68.32
7433;BME280;32233;49.500;7.764;2023-07-22T07:30:11;98416.53;;;19.39;67.93
7433;BME280;32233;49.500;7.764;2023-07-22T07:32:38;98420.03;;;19.87;64.80
7433;BME280;32233;49.500;7.764;2023-07-22T07:35:05;98410.22;;;20.13;62.72
7433;BME280;32233;49.500;7.764;2023-07-22T07:37:32;98421.53;;;20.35;61.20
7433;BME280;32233;49.500;7.764;2023-07-22T07:39:59;98416.22;;;20.56;61.08
7433;BME280;32233;49.500;7.764;2023-07-22T07:42:29;98409.56;;;22.54;53.85
7433;BME280;32233;49.500;7.764;2023-07-22T07:44:55;98411.66;;;22.62;52.60
7433;BME280;32233;49.500;7.764;2023-07-22T07:47:22;98411.81;;;24.30;48.99
7433;BME280;32233;49.500;7.764;2023-07-22T07:49:48;98399.81;;;25.53;45.29
7433;BME280;32233;49.500;7.764;2023-07-22T07:52:15;98403.94;;;25.04;45.85
7433;BME280;32233;49.500;7.764;2023-07-22T07:54:42;98405.53;;;25.38;45.11
7433;BME280;32233;49.500;7.764;2023-07-22T07:57:08;98411.38;;;24.23;47.81
7433;BME280;32233;49.500;7.764;2023-07-22T07:59:35;98403.47;;;24.83;46.38
7433;BME280;32233;49.500;7.764;2023-07-22T08:02:05;98405.28;;;24.88;46.31
7433;BME280;32233;49.500;7.764;2023-07-22T08:04:35;98400.66;;;24.18;46.68
7433;BME280;32233;49.500;7.764;2023-07-22T08:07:02;98412.22;;;22.93;51.10
7433;BME280;32233;49.500;7.764;2023-07-22T08:09:30;98408.72;;;22.04;51.33
7433;BME280;32233;49.500;7.764;2023-07-22T08:11:57;98409.25;;;21.11;55.85
7433;BME280;32233;49.500;7.764;2023-07-22T08:14:24;98411.38;;;21.14;56.56
7433;BME280;32233;49.500;7.764;2023-07-22T08:16:50;98411.41;;;21.39;55.95
7433;BME280;32233;49.500;7.764;2023-07-22T08:19:17;98412.72;;;21.21;54.08
7433;BME280;32233;49.500;7.764;2023-07-22T08:21:43;98416.75;;;21.24;56.18
7433;BME280;32233;49.500;7.764;2023-07-22T08:24:10;98419.44;;;21.44;55.09
7433;BME280;32233;49.500;7.764;2023-07-22T08:26:37;98421.03;;;21.50;54.18
7433;BME280;32233;49.500;7.764;2023-07-22T08:29:03;98409.88;;;21.93;52.38
7433;BME280;32233;49.500;7.764;2023-07-22T08:31:30;98415.63;;;21.66;54.20
7433;BME280;32233;49.500;7.764;2023-07-22T08:33:56;98413.34;;;21.98;52.01
7433;BME280;32233;49.500;7.764;2023-07-22T08:36:23;98415.88;;;21.69;53.46
7433;BME280;32233;49.500;7.764;2023-07-22T08:38:49;98413.09;;;21.90;52.95
7433;BME280;32233;49.500;7.764;2023-07-22T08:41:16;98412.75;;;22.07;50.91
7433;BME280;32233;49.500;7.764;2023-07-22T08:43:45;98424.66;;;21.90;52.68
7433;BME280;32233;49.500;7.764;2023-07-22T08:46:12;98416.31;;;21.92;52.03
7433;BME280;32233;49.500;7.764;2023-07-22T08:48:41;98414.78;;;21.70;53.19
7433;BME280;32233;49.500;7.764;2023-07-22T08:51:27;98413.13;;;21.80;52.52
7433;BME280;32233;49.500;7.764;2023-07-22T08:53:55;98409.06;;;21.92;49.84
7433;BME280;32233;49.500;7.764;2023-07-22T08:56:37;98417.75;;;22.34;48.53
7433;BME280;32233;49.500;7.764;2023-07-22T08:59:05;98410.28;;;22.20;50.20
7433;BME280;32233;49.500;7.764;2023-07-22T09:01:33;98406.84;;;22.05;51.97
7433;BME280;32233;49.500;7.764;2023-07-22T09:04:01;98414.91;;;22.10;51.24
7433;BME280;32233;49.500;7.764;2023-07-22T09:06:28;98405.16;;;22.29;50.52
7433;BME280;32233;49.500;7.764;2023-07-22T09:08:56;98419.28;;;22.45;50.06
7433;BME280;32233;49.500;7.764;2023-07-22T09:11:24;98399.03;;;22.58;51.66
7433;BME280;32233;49.500;7.764;2023-07-22T09:13:51;98392.94;;;23.10;49.75
7433;BME280;32233;49.500;7.764;2023-07-22T09:16:19;98390.19;;;22.81;50.03
7433;BME280;32233;49.500;7.764;2023-07-22T09:18:46;98396.09;;;22.54;51.54
7433;BME280;32233;49.500;7.764;2023-07-22T09:21:14;98396.06;;;22.93;50.51
7433;BME280;32233;49.500;7.764;2023-07-22T09:23:41;98388.25;;;23.21;49.44
7433;BME280;32233;49.500;7.764;2023-07-22T09:26:11;98388.03;;;23.17;48.36
7433;BME280;32233;49.500;7.764;2023-07-22T09:28:49;98382.25;;;23.53;46.23
7433;BME280;32233;49.500;7.764;2023-07-22T09:31:16;98393.84;;;23.54;47.40
7433;BME280;32233;49.500;7.764;2023-07-22T09:33:43;98397.03;;;23.85;45.60
7433;BME280;32233;49.500;7.764;2023-07-22T09:36:10;98392.06;;;23.92;45.28
7433;BME280;32233;49.500;7.764;2023-07-22T09:38:38;98390.22;;;23.63;45.92
7433;BME280;32233;49.500;7.764;2023-07-22T09:41:04;98394.94;;;23.29;44.82
7433;BME280;32233;49.500;7.764;2023-07-22T09:43:35;98387.97;;;23.22;45.44
7433;BME280;32233;49.500;7.764;2023-07-22T09:46:11;98393.75;;;22.77;46.91
7433;BME280;32233;49.500;7.764;2023-07-22T09:48:44;98392.00;;;22.96;46.38
7433;BME280;32233;49.500;7.764;2023-07-22T09:51:14;98383.06;;;22.66;47.60
7433;BME280;32233;49.500;7.764;2023-07-22T09:53:45;98373.66;;;22.64;46.97
7433;BME280;32233;49.500;7.764;2023-07-22T09:56:12;98370.25;;;23.16;46.50
7433;BME280;32233;49.500;7.764;2023-07-22T09:58:39;98376.34;;;23.27;46.60
7433;BME280;32233;49.500;7.764;2023-07-22T10:01:07;98368.03;;;23.47;44.83
7433;BME280;32233;49.500;7.764;2023-07-22T10:03:35;98375.06;;;23.72;43.96
7433;BME280;32233;49.500;7.764;2023-07-22T10:06:05;98372.03;;;23.50;44.43
7433;BME280;32233;49.500;7.764;2023-07-22T10:08:33;98376.78;;;23.34;45.05
7433;BME280;32233;49.500;7.764;2023-07-22T10:11:05;98375.63;;;23.16;44.31
7433;BME280;32233;49.500;7.764;2023-07-22T10:13:35;98376.06;;;23.29;41.73
7433;BME280;32233;49.500;7.764;2023-07-22T10:16:02;98380.13;;;23.26;43.71
7433;BME280;32233;49.500;7.764;2023-07-22T10:18:30;98371.28;;;23.20;42.07
7433;BME280;32233;49.500;7.764;2023-07-22T10:20:58;98371.09;;;22.78;43.59
7433;BME280;32233;49.500;7.764;2023-07-22T10:23:26;98377.03;;;22.45;44.58
7433;BME280;32233;49.500;7.764;2023-07-22T10:25:53;98368.50;;;22.28;45.34
7433;BME280;32233;49.500;7.764;2023-07-22T10:28:21;98380.66;;;22.25;45.61
7433;BME280;32233;49.500;7.764;2023-07-22T10:30:48;98369.44;;;22.03;45.44
7433;BME280;32233;49.500;7.764;2023-07-22T10:33:15;98371.03;;;22.04;44.33
7433;BME280;32233;49.500;7.764;2023-07-22T10:35:43;98373.69;;;22.93;44.12
7433;BME280;32233;49.500;7.764;2023-07-22T10:38:11;98361.78;;;23.28;42.68
7433;BME280;32233;49.500;7.764;2023-07-22T10:40:53;98363.47;;;23.72;42.20
7433;BME280;32233;49.500;7.764;2023-07-22T10:43:33;98371.13;;;23.36;41.73
7433;BME280;32233;49.500;7.764;2023-07-22T10:46:11;98360.56;;;23.39;41.83
7433;BME280;32233;49.500;7.764;2023-07-22T10:48:42;98356.22;;;22.90;44.26
7433;BME280;32233;49.500;7.764;2023-07-22T10:51:13;98351.63;;;22.86;44.27
7433;BME280;32233;49.500;7.764;2023-07-22T10:53:48;98349.19;;;23.42;42.37
7433;BME280;32233;49.500;7.764;2023-07-22T10:56:23;98335.38;;;24.11;41.10
7433;BME280;32233;49.500;7.764;2023-07-22T10:58:56;98335.78;;;25.21;40.28
7433;BME280;32233;49.500;7.764;2023-07-22T11:11:58;98333.66;;;24.39;38.21
7433;BME280;32233;49.500;7.764;2023-07-22T11:14:37;98337.34;;;24.94;38.00
7433;BME280;32233;49.500;7.764;2023-07-22T11:17:05;98340.16;;;25.03;36.56
7433;BME280;32233;49.500;7.764;2023-07-22T11:19:34;98336.47;;;24.48;38.57
7433;BME280;32233;49.500;7.764;2023-07-22T11:22:01;98330.50;;;23.94;38.05
7433;BME280;32233;49.500;7.764;2023-07-22T11:24:28;98333.97;;;24.32;38.11
7433;BME280;32233;49.500;7.764;2023-07-22T11:26:55;98333.34;;;24.73;37.93
7433;BME280;32233;49.500;7.764;2023-07-22T11:29:22;98334.09;;;24.79;36.87
7433;BME280;32233;49.500;7.764;2023-07-22T11:31:50;98325.38;;;25.28;36.54
7433;BME280;32233;49.500;7.764;2023-07-22T11:34:19;98316.28;;;24.91;36.71
7433;BME280;32233;49.500;7.764;2023-07-22T11:36:48;98316.25;;;24.45;37.63
7433;BME280;32233;49.500;7.764;2023-07-22T11:39:17;98315.81;;;24.00;37.80
7433;BME280;32233;49.500;7.764;2023-07-22T11:41:45;98307.59;;;24.10;39.12
7433;BME280;32233;49.500;7.764;2023-07-22T11:44:26;98324.75;;;24.01;38.93
7433;BME280;32233;49.500;7.764;2023-07-22T11:46:55;98317.22;;;23.79;39.74
7433;BME280;32233;49.500;7.764;2023-07-22T11:49:27;98323.19;;;24.51;39.70
7433;BME280;32233;49.500;7.764;2023-07-22T11:52:03;98313.72;;;25.55;38.05
7433;BME280;32233;49.500;7.764;2023-07-22T11:54:31;98306.81;;;26.13;36.23
7433;BME280;32233;49.500;7.764;2023-07-22T11:57:14;98298.94;;;26.25;35.01
7433;BME280;32233;49.500;7.764;2023-07-22T11:59:46;98300.00;;;26.60;34.29
7433;BME280;32233;49.500;7.764;2023-07-22T12:02:17;98298.16;;;25.75;35.09
7433;BME280;32233;49.500;7.764;2023-07-22T12:04:56;98298.84;;;24.98;36.69
7433;BME280;32233;49.500;7.764;2023-07-22T12:07:24;98298.84;;;24.98;37.61
7433;BME280;32233;49.500;7.764;2023-07-22T12:09:53;98292.56;;;25.57;36.59
7433;BME280;32233;49.500;7.764;2023-07-22T12:12:20;98287.84;;;27.11;34.21
7433;BME280;32233;49.500;7.764;2023-07-22T12:14:46;98296.47;;;26.82;35.14
7433;BME280;32233;49.500;7.764;2023-07-22T12:17:13;98293.31;;;26.44;34.99
7433;BME280;32233;49.500;7.764;2023-07-22T12:19:50;98286.44;;;26.15;35.76
7433;BME280;32233;49.500;7.764;2023-07-22T12:22:17;98295.44;;;25.75;35.46
7433;BME280;32233;49.500;7.764;2023-07-22T12:24:47;98294.41;;;25.34;36.44
7433;BME280;32233;49.500;7.764;2023-07-22T12:27:13;98291.69;;;25.34;36.15
7433;BME280;32233;49.500;7.764;2023-07-22T12:29:40;98286.72;;;25.91;35.80
7433;BME280;32233;49.500;7.764;2023-07-22T12:32:07;98285.72;;;26.46;34.31
7433;BME280;32233;49.500;7.764;2023-07-22T12:34:34;98284.25;;;26.62;33.97
7433;BME280;32233;49.500;7.764;2023-07-22T12:37:00;98269.03;;;26.84;33.80
7433;BME280;32233;49.500;7.764;2023-07-22T12:39:27;98275.66;;;27.49;34.00
7433;BME280;32233;49.500;7.764;2023-07-22T12:41:55;98275.75;;;28.09;31.69
7433;BME280;32233;49.500;7.764;2023-07-22T12:44:22;98272.44;;;28.77;30.55
7433;BME280;32233;49.500;7.764;2023-07-22T12:46:48;98272.66;;;28.63;30.51
7433;BME280;32233;49.500;7.764;2023-07-22T12:49:15;98269.09;;;27.01;31.88
7433;BME280;32233;49.500;7.764;2023-07-22T12:51:41;98271.41;;;26.32;32.34
7433;BME280;32233;49.500;7.764;2023-07-22T12:54:08;98262.13;;;26.47;33.24
7433;BME280;32233;49.500;7.764;2023-07-22T12:56:34;98270.25;;;25.24;33.83
7433;BME280;32233;49.500;7.764;2023-07-22T12:59:01;98265.94;;;24.49;35.68
7433;BME280;32233;49.500;7.764;2023-07-22T13:01:27;98263.25;;;24.30;36.77
7433;BME280;32233;49.500;7.764;2023-07-22T13:03:54;98258.53;;;24.22;38.04
7433;BME280;32233;49.500;7.764;2023-07-22T13:06:21;98265.94;;;25.37;34.96
7433;BME280;32233;49.500;7.764;2023-07-22T13:08:47;98260.31;;;25.61;34.20
7433;BME280;32233;49.500;7.764;2023-07-22T13:11:14;98247.84;;;25.74;35.62
7433;BME280;32233;49.500;7.764;2023-07-22T13:13:40;98250.22;;;25.75;33.42
7433;BME280;32233;49.500;7.764;2023-07-22T13:16:07;98259.47;;;25.74;33.88
7433;BME280;32233;49.500;7.764;2023-07-22T13:18:33;98258.72;;;25.46;34.67
7433;BME280;32233;49.500;7.764;2023-07-22T13:21:01;98264.44;;;25.31;35.10